Time;durP1;ratioP1;P1;durP2;ratioP2;P2;SDS_P1;SDS_P2;PMS_P1;PMS_P2;Temp;Humidity;BMP_temperature;BMP_pressure;BME280_temperature;BME280_humidity;BME280_pressure;Samples;Min_cycle;Max_cycle;Signal;HPM_P1;HPM_P2
2023/02/27 00:01:22;;;;;;;;;;;;;;;9.28;46.45;101653.44;4904958;28;98715;-67
2023/02/27 00:03:48;;;;;;;;;;;;;;;9.26;46.05;101653.66;4902856;28;98575;-68
2023/02/27 00:06:16;;;;;;;;;;;;;;;9.25;46.09;101653.88;4900998;28;98228;-67
2023/02/27 00:08:43;;;;;;;;;;;;;;;9.25;45.87;101648.50;4912857;28;99872;-66
2023/02/27 00:11:09;;;;;;;;;;;;;;;9.23;46.58;101651.41;4907340;28;98216;-67
2023/02/27 00:13:35;;;;;;;;;;;;;;;9.22;46.51;101646.25;4907985;28;98186;-68
2023/02/27 00:16:02;;;;;;;;;;;;;;;9.22;46.52;101646.25;4921256;28;98604;-67
2023/02/27 00:18:28;;;;;;;;;;;;;;;9.20;46.48;101641.13;4918757;28;98152;-68
2023/02/27 00:20:54;;;;;;;;;;;;;;;9.19;46.37;101647.53;4903402;28;98795;-67
2023/02/27 00:23:21;;;;;;;;;;;;;;;9.19;45.81;101644.03;4909382;28;97880;-67
2023/02/27 00:25:48;;;;;;;;;;;;;;;9.17;46.50;101644.28;4913524;28;98057;-68
2023/02/27 00:28:15;;;;;;;;;;;;;;;9.16;46.61;101647.19;4928144;28;98496;-68
2023/02/27 00:30:41;;;;;;;;;;;;;;;9.15;46.67;101650.91;4909092;28;98851;-68
2023/02/27 00:33:07;;;;;;;;;;;;;;;9.14;46.31;101652.78;4926529;28;98524;-67
2023/02/27 00:35:34;;;;;;;;;;;;;;;9.13;45.77;101650.34;4924261;28;101731;-67
2023/02/27 00:38:00;;;;;;;;;;;;;;;9.12;46.62;101646.00;4926511;28;98443;-67
2023/02/27 00:40:26;;;;;;;;;;;;;;;9.11;46.64;101650.56;4927259;28;99695;-67
2023/02/27 00:42:52;;;;;;;;;;;;;;;9.10;46.72;101651.59;4909712;28;98090;-67
2023/02/27 00:45:19;;;;;;;;;;;;;;;9.07;46.49;101647.50;4910146;28;98036;-67
2023/02/27 00:47:48;;;;;;;;;;;;;;;9.06;46.18;101653.94;4924699;28;98121;-66
2023/02/27 00:50:14;;;;;;;;;;;;;;;9.06;45.98;101653.13;4920843;28;98958;-66
2023/02/27 00:52:40;;;;;;;;;;;;;;;9.03;46.60;101657.06;4925586;28;98853;-66
2023/02/27 00:55:07;;;;;;;;;;;;;;;9.02;46.31;101655.44;4905873;28;98222;-66
2023/02/27 00:57:33;;;;;;;;;;;;;;;9.01;46.09;101661.88;4916565;28;98452;-66
2023/02/27 00:59:59;;;;;;;;;;;;;;;9.00;46.54;101656.69;4921532;28;98878;-66
2023/02/27 01:02:25;;;;;;;;;;;;;;;8.98;46.19;101651.56;4940862;28;98256;-67
2023/02/27 01:04:52;;;;;;;;;;;;;;;8.98;46.66;101653.44;4911024;28;98985;-67
2023/02/27 01:07:18;;;;;;;;;;;;;;;8.96;46.18;101659.06;4906715;28;98005;-66
2023/02/27 01:09:44;;;;;;;;;;;;;;;8.94;46.57;101654.94;4937857;28;98862;-67
2023/02/27 01:12:10;;;;;;;;;;;;;;;8.94;46.56;101658.44;4927084;28;98415;-66
2023/02/27 01:14:37;;;;;;;;;;;;;;;8.93;46.05;101654.13;4893368;28;98861;-67
2023/02/27 01:17:03;;;;;;;;;;;;;;;8.92;46.74;101657.88;4906053;28;98733;-67
2023/02/27 01:19:29;;;;;;;;;;;;;;;8.90;46.19;101645.69;4927532;28;99875;-68
2023/02/27 01:21:55;;;;;;;;;;;;;;;8.88;46.28;101648.59;4942843;28;98358;-68
2023/02/27 01:24:22;;;;;;;;;;;;;;;8.87;46.15;101651.50;4910026;28;98144;-67
2023/02/27 01:26:48;;;;;;;;;;;;;;;8.84;46.30;101645.56;4935953;28;99349;-67
2023/02/27 01:29:15;;;;;;;;;;;;;;;8.85;46.33;101657.13;4921045;28;98193;-68
2023/02/27 01:31:41;;;;;;;;;;;;;;;8.83;46.08;101651.16;4935494;28;99267;-67
2023/02/27 01:34:07;;;;;;;;;;;;;;;8.83;46.03;101651.16;4923164;28;98227;-67
2023/02/27 01:36:33;;;;;;;;;;;;;;;8.81;46.10;101651.38;4910813;28;98253;-67
2023/02/27 01:38:59;;;;;;;;;;;;;;;8.82;45.85;101644.13;4938335;28;98217;-68
2023/02/27 01:41:26;;;;;;;;;;;;;;;8.81;46.10;101642.50;4918807;28;98194;-67
2023/02/27 01:43:54;;;;;;;;;;;;;;;8.81;46.11;101651.38;4921937;28;98257;-67
2023/02/27 01:46:20;;;;;;;;;;;;;;;8.80;46.71;101648.91;4937592;28;98232;-67
2023/02/27 01:48:47;;;;;;;;;;;;;;;8.81;46.28;101655.94;4936295;28;98515;-67
2023/02/27 01:51:17;;;;;;;;;;;;;;;8.81;45.80;101664.81;4932213;28;98070;-67
2023/02/27 01:53:44;;;;;;;;;;;;;;;8.81;46.06;101664.00;4916939;28;98239;-68
2023/02/27 01:56:15;;;;;;;;;;;;;;;8.82;46.00;101661.09;4906473;28;99516;-68
2023/02/27 01:58:43;;;;;;;;;;;;;;;8.82;46.42;101666.47;4921611;28;98197;-68
2023/02/27 02:01:10;;;;;;;;;;;;;;;8.84;46.63;101671.59;4957030;28;98257;-67
2023/02/27 02:03:46;;;;;;;;;;;;;;;8.84;46.40;101664.38;4924243;28;99696;-68
2023/02/27 02:06:12;;;;;;;;;;;;;;;8.85;45.94;101659.81;4924835;28;98181;-67
2023/02/27 02:08:45;;;;;;;;;;;;;;;8.87;46.46;101664.97;4910505;28;99113;-67
2023/02/27 02:11:12;;;;;;;;;;;;;;;8.87;46.08;101667.66;4933762;28;98333;-67
2023/02/27 02:13:39;;;;;;;;;;;;;;;8.86;46.10;101658.75;4924665;28;98216;-67
2023/02/27 02:16:11;;;;;;;;;;;;;;;8.88;46.40;101666.59;4938267;28;98552;-67
2023/02/27 02:18:57;;;;;;;;;;;;;;;8.88;46.12;101664.72;4940777;28;98284;-66
2023/02/27 02:21:47;;;;;;;;;;;;;;;8.88;46.54;101658.53;4910574;28;98339;-66
2023/02/27 02:24:54;;;;;;;;;;;;;;;8.89;46.54;101657.50;4923572;28;98155;-66
2023/02/27 02:27:54;;;;;;;;;;;;;;;8.90;45.99;101656.44;4907814;28;98194;-66
2023/02/27 02:31:00;;;;;;;;;;;;;;;8.90;45.90;101645.69;4923591;28;98244;-67
2023/02/27 02:34:03;;;;;;;;;;;;;;;8.89;45.65;101642.19;4923472;28;100387;-67
2023/02/27 02:36:45;;;;;;;;;;;;;;;8.90;45.92;101643.00;4951719;28;98163;-67
2023/02/27 02:39:43;;;;;;;;;;;;;;;8.91;46.41;101640.06;4950277;28;98161;-67
2023/02/27 02:42:34;;;;;;;;;;;;;;;8.92;45.73;101643.56;4917484;28;98022;-68
2023/02/27 02:45:20;;;;;;;;;;;;;;;8.92;46.32;101641.72;4937871;28;98094;-68
2023/02/27 02:48:08;;;;;;;;;;;;;;;8.92;46.05;101639.03;4933281;28;97879;-67
2023/02/27 02:50:38;;;;;;;;;;;;;;;8.93;46.04;101643.38;4936873;28;98611;-68
2023/02/27 02:53:12;;;;;;;;;;;;;;;8.93;46.51;101648.75;4926813;28;98114;-67
2023/02/27 02:55:44;;;;;;;;;;;;;;;8.93;46.13;101654.13;4933727;28;98039;-67
2023/02/27 02:58:42;;;;;;;;;;;;;;;8.93;46.15;101640.69;4939108;28;98565;-68
2023/02/27 03:01:15;;;;;;;;;;;;;;;8.93;45.76;101646.06;4918790;28;98657;-67
2023/02/27 03:04:03;;;;;;;;;;;;;;;8.95;46.20;101643.13;4906334;28;99078;-68
2023/02/27 03:06:34;;;;;;;;;;;;;;;8.94;46.68;101653.06;4924150;28;98390;-67
2023/02/27 03:09:40;;;;;;;;;;;;;;;8.94;46.25;101650.38;4925543;28;98206;-67
2023/02/27 03:12:08;;;;;;;;;;;;;;;8.95;45.87;101665.47;4901830;28;99494;-67
2023/02/27 03:14:49;;;;;;;;;;;;;;;8.95;46.55;101672.72;4891804;28;98086;-68
2023/02/27 03:17:19;;;;;;;;;;;;;;;8.95;46.13;101670.84;4904475;28;98164;-67
2023/02/27 03:19:57;;;;;;;;;;;;;;;8.96;46.14;101672.50;4920164;28;98159;-68
2023/02/27 03:22:31;;;;;;;;;;;;;;;8.96;46.30;101675.19;4900815;28;98273;-68
2023/02/27 03:24:59;;;;;;;;;;;;;;;8.97;45.72;101684.06;4912659;28;98418;-67
2023/02/27 03:27:28;;;;;;;;;;;;;;;8.95;46.04;101689.66;4901017;28;98123;-67
2023/02/27 03:29:58;;;;;;;;;;;;;;;8.97;46.40;101690.28;4900527;28;98442;-67
2023/02/27 03:32:32;;;;;;;;;;;;;;;8.97;45.60;101690.28;4912906;28;98222;-67
2023/02/27 03:34:58;;;;;;;;;;;;;;;8.97;45.74;101687.59;4890056;28;98004;-67
2023/02/27 03:37:43;;;;;;;;;;;;;;;8.98;46.36;101691.09;4896267;28;99317;-67
2023/02/27 03:40:34;;;;;;;;;;;;;;;8.97;45.82;101684.06;4932615;28;97783;-67
2023/02/27 03:43:37;;;;;;;;;;;;;;;8.98;45.79;101693.78;4891295;28;98007;-67
2023/02/27 03:46:11;;;;;;;;;;;;;;;8.98;45.92;101691.09;4915644;28;99970;-66
2023/02/27 03:48:43;;;;;;;;;;;;;;;8.98;45.80;101696.47;4903422;28;99237;-67
2023/02/27 03:51:12;;;;;;;;;;;;;;;8.98;46.36;101691.91;4905135;28;98671;-67
2023/02/27 03:53:58;;;;;;;;;;;;;;;8.98;46.29;101702.66;4884032;28;98077;-67
2023/02/27 03:56:30;;;;;;;;;;;;;;;8.98;46.03;101704.53;4929788;28;116400;-67
2023/02/27 03:58:57;;;;;;;;;;;;;;;8.96;46.67;101707.47;4904090;28;100148;-68
2023/02/27 04:01:23;;;;;;;;;;;;;;;8.98;46.06;101716.09;4897777;28;99791;-68
2023/02/27 04:03:56;;;;;;;;;;;;;;;8.97;45.97;101713.66;4889048;28;98335;-67
2023/02/27 04:09:16;;;;;;;;;;;;;;;8.97;46.48;101717.16;4909955;28;98397;-68
2023/02/27 04:12:14;;;;;;;;;;;;;;;8.97;46.32;101727.91;4906619;28;98813;-68
2023/02/27 04:14:49;;;;;;;;;;;;;;;8.97;45.80;101727.91;4920280;28;98280;-68
2023/02/27 04:17:26;;;;;;;;;;;;;;;8.96;46.02;101731.66;4903733;28;98165;-67
2023/02/27 04:20:16;;;;;;;;;;;;;;;8.97;46.58;101730.63;4883679;28;100397;-68
2023/02/27 04:23:02;;;;;;;;;;;;;;;8.97;45.99;101737.88;4903965;28;98007;-67
2023/02/27 04:25:42;;;;;;;;;;;;;;;8.97;46.35;101744.06;4890169;28;100402;-67
2023/02/27 04:28:25;;;;;;;;;;;;;;;8.97;46.54;101741.38;4886307;28;100446;-68
2023/02/27 04:30:51;;;;;;;;;;;;;;;8.97;46.06;101748.63;4913286;28;100201;-67
2023/02/27 04:33:42;;;;;;;;;;;;;;;8.96;46.02;101755.88;4916347;28;98185;-67
2023/02/27 04:36:31;;;;;;;;;;;;;;;8.97;46.35;101754.00;4932371;28;98207;-68
2023/02/27 04:39:23;;;;;;;;;;;;;;;8.96;46.24;101749.66;4900973;28;100442;-67
2023/02/27 04:41:59;;;;;;;;;;;;;;;8.92;45.64;101752.00;4881622;28;98348;-68
2023/02/27 04:44:25;;;;;;;;;;;;;;;8.91;46.01;101746.81;4884642;28;98210;-67
2023/02/27 04:46:51;;;;;;;;;;;;;;;8.89;46.02;101746.25;4897537;28;98008;-67
2023/02/27 04:49:28;;;;;;;;;;;;;;;8.85;46.04;101744.00;4884237;28;97994;-67
2023/02/27 04:52:01;;;;;;;;;;;;;;;8.86;45.86;101758.25;4902619;28;99450;-66
2023/02/27 04:54:34;;;;;;;;;;;;;;;8.85;45.89;101749.38;4903374;28;98119;-67
2023/02/27 04:57:02;;;;;;;;;;;;;;;8.84;46.08;101758.50;4887706;28;99465;-67
2023/02/27 04:59:35;;;;;;;;;;;;;;;8.83;46.07;101746.06;4900485;28;98044;-68
2023/02/27 05:02:04;;;;;;;;;;;;;;;8.82;45.93;101751.69;4878628;28;98291;-66
2023/02/27 05:04:31;;;;;;;;;;;;;;;8.80;46.08;101751.91;4914583;28;98110;-66
2023/02/27 05:06:58;;;;;;;;;;;;;;;8.79;45.75;101750.25;4888100;28;98363;-66
2023/02/27 05:10:04;;;;;;;;;;;;;;;8.80;46.37;101759.13;4887012;28;97886;-67
2023/02/27 05:13:09;;;;;;;;;;;;;;;8.78;46.03;101750.50;4916094;28;99329;-67
2023/02/27 05:15:38;;;;;;;;;;;;;;;8.77;45.79;101757.75;4879773;28;99248;-67
2023/02/27 05:18:09;;;;;;;;;;;;;;;8.76;46.33;101756.09;4895309;28;98423;-67
2023/02/27 05:20:47;;;;;;;;;;;;;;;8.75;46.04;101761.69;4910938;28;98013;-66
2023/02/27 05:24:08;;;;;;;;;;;;;;;8.74;45.68;101758.19;4937073;28;98193;-67
2023/02/27 05:26:46;;;;;;;;;;;;;;;8.74;45.77;101762.75;4908890;28;98142;-66
2023/02/27 05:29:23;;;;;;;;;;;;;;;8.74;46.30;101754.69;4936911;28;99770;-67
2023/02/27 05:32:01;;;;;;;;;;;;;;;8.72;46.32;101762.13;4923733;28;99226;-67
2023/02/27 05:34:34;;;;;;;;;;;;;;;8.71;46.21;101755.94;4941621;28;97890;-67
2023/02/27 05:37:07;;;;;;;;;;;;;;;8.72;45.98;101762.94;4909682;28;98234;-67
2023/02/27 05:39:35;;;;;;;;;;;;;;;8.72;46.13;101759.44;4906221;28;98603;-67
2023/02/27 05:42:05;;;;;;;;;;;;;;;8.71;45.63;101764.00;4906973;28;99296;-66
2023/02/27 05:44:36;;;;;;;;;;;;;;;8.71;45.59;101760.50;4934691;28;99661;-67
2023/02/27 05:47:09;;;;;;;;;;;;;;;8.71;45.70;101755.94;4907024;28;99663;-66
2023/02/27 05:50:02;;;;;;;;;;;;;;;8.71;46.16;101765.88;4917329;28;101851;-67
2023/02/27 05:52:28;;;;;;;;;;;;;;;8.72;45.70;101767.50;4945264;28;98637;-67
2023/02/27 05:55:00;;;;;;;;;;;;;;;8.72;45.99;101768.31;4916883;28;98307;-67
2023/02/27 05:57:33;;;;;;;;;;;;;;;8.71;45.79;101772.06;4921046;28;97979;-68
2023/02/27 06:00:05;;;;;;;;;;;;;;;8.72;46.35;101768.31;4917930;28;98618;-68
2023/02/27 06:02:31;;;;;;;;;;;;;;;8.74;45.62;101781.56;4920666;28;100226;-67
2023/02/27 06:04:57;;;;;;;;;;;;;;;8.72;46.02;101779.06;4903853;28;99186;-67
2023/02/27 06:07:23;;;;;;;;;;;;;;;8.74;46.30;101782.38;4920117;28;99206;-68
2023/02/27 06:09:50;;;;;;;;;;;;;;;8.75;46.48;101789.38;4905257;28;98402;-67
2023/02/27 06:12:16;;;;;;;;;;;;;;;8.76;45.74;101799.13;4904679;28;99724;-67
2023/02/27 06:14:42;;;;;;;;;;;;;;;8.77;46.14;101797.25;4903554;28;98888;-67
2023/02/27 06:17:09;;;;;;;;;;;;;;;8.76;46.07;101798.28;4905648;28;98342;-67
2023/02/27 06:19:36;;;;;;;;;;;;;;;8.78;45.90;101806.94;4917154;28;98775;-68
2023/02/27 06:22:02;;;;;;;;;;;;;;;8.79;45.87;101805.91;4931939;28;98088;-67
2023/02/27 06:24:28;;;;;;;;;;;;;;;8.81;45.71;101807.34;4899792;28;98222;-67
2023/02/27 06:26:54;;;;;;;;;;;;;;;8.83;45.60;101801.72;4918700;28;98172;-67
2023/02/27 06:29:21;;;;;;;;;;;;;;;8.84;45.89;101796.13;4915955;28;98108;-68
2023/02/27 06:31:47;;;;;;;;;;;;;;;8.85;45.76;101795.09;4902002;28;99841;-68
2023/02/27 06:34:13;;;;;;;;;;;;;;;8.89;45.41;101805.41;4908869;28;98167;-67
2023/02/27 06:36:39;;;;;;;;;;;;;;;8.90;46.31;101798.97;4914583;28;98029;-67
2023/02/27 06:39:06;;;;;;;;;;;;;;;8.93;45.50;101810.09;4898976;28;98256;-66
2023/02/27 06:41:32;;;;;;;;;;;;;;;8.97;45.50;101813.16;4904028;28;98132;-66
2023/02/27 06:43:58;;;;;;;;;;;;;;;8.98;45.79;101815.63;4919348;28;98351;-66
2023/02/27 06:46:24;;;;;;;;;;;;;;;9.02;45.76;101810.63;4939026;28;98287;-67
2023/02/27 06:48:51;;;;;;;;;;;;;;;9.05;45.68;101816.38;4918720;28;98569;-66
2023/02/27 06:51:17;;;;;;;;;;;;;;;9.09;46.14;101819.44;4901845;28;98240;-66
2023/02/27 06:53:43;;;;;;;;;;;;;;;9.13;45.60;101820.63;4916608;28;98191;-66
2023/02/27 06:56:09;;;;;;;;;;;;;;;9.17;45.90;101812.94;4906625;28;98089;-66
2023/02/27 06:58:35;;;;;;;;;;;;;;;9.20;45.67;101818.69;4905291;28;99601;-66
2023/02/27 07:01:05;;;;;;;;;;;;;;;9.27;45.52;101816.72;4903162;28;99353;-66
2023/02/27 07:03:31;;;;;;;;;;;;;;;9.33;45.82;101821.22;4919771;28;99623;-67
2023/02/27 07:05:58;;;;;;;;;;;;;;;9.40;45.70;101823.00;4917674;28;98892;-68
2023/02/27 07:08:24;;;;;;;;;;;;;;;9.46;45.41;101822.91;4904136;28;98320;-66
2023/02/27 07:10:50;;;;;;;;;;;;;;;9.53;45.90;101834.41;4916771;28;98129;-68
2023/02/27 07:13:17;;;;;;;;;;;;;;;9.58;45.64;101831.03;4915919;28;98337;-67
2023/02/27 07:15:43;;;;;;;;;;;;;;;9.63;45.73;101830.34;4900394;28;98153;-67
2023/02/27 07:18:09;;;;;;;;;;;;;;;9.67;44.92;101823.44;4943093;28;98292;-67
2023/02/27 07:20:36;;;;;;;;;;;;;;;9.73;45.71;101827.94;4904517;28;98222;-67
2023/02/27 07:23:02;;;;;;;;;;;;;;;9.81;44.93;101833.81;4918528;28;98062;-68
2023/02/27 07:25:28;;;;;;;;;;;;;;;9.93;45.83;101835.72;4904899;28;98198;-67
2023/02/27 07:27:54;;;;;;;;;;;;;;;10.01;45.60;101833.53;4904217;28;99581;-68
2023/02/27 07:30:21;;;;;;;;;;;;;;;10.08;45.35;101833.44;4903250;28;99605;-67
2023/02/27 07:32:47;;;;;;;;;;;;;;;10.11;45.16;101838.38;4917044;28;98770;-69
2023/02/27 07:35:14;;;;;;;;;;;;;;;10.12;45.45;101836.50;4917753;28;98287;-68
2023/02/27 07:37:40;;;;;;;;;;;;;;;10.12;45.35;101840.00;4904127;28;98309;-69
2023/02/27 07:40:07;;;;;;;;;;;;;;;10.12;45.23;101844.56;4916184;28;98583;-67
2023/02/27 07:42:34;;;;;;;;;;;;;;;10.11;45.33;101846.44;4903902;28;98201;-67
2023/02/27 07:45:00;;;;;;;;;;;;;;;10.14;45.39;101845.16;4899741;28;98164;-67
2023/02/27 07:47:26;;;;;;;;;;;;;;;10.16;45.62;101845.75;4914047;28;99589;-67
2023/02/27 07:49:52;;;;;;;;;;;;;;;10.19;45.43;101851.50;4912969;28;98221;-68
2023/02/27 07:52:18;;;;;;;;;;;;;;;10.22;45.41;101859.13;4900142;28;98273;-67
2023/02/27 07:54:44;;;;;;;;;;;;;;;10.31;45.65;101863.16;4904903;28;98363;-69
2023/02/27 07:57:10;;;;;;;;;;;;;;;10.41;45.46;101861.75;4905326;28;99851;-67
2023/02/27 07:59:37;;;;;;;;;;;;;;;10.47;45.74;101861.66;4900237;28;100336;-67
2023/02/27 08:02:03;;;;;;;;;;;;;;;10.53;45.61;101866.13;4914812;28;99525;-67
2023/02/27 08:04:29;;;;;;;;;;;;;;;10.61;45.87;101854.19;4905921;28;98491;-69
2023/02/27 08:06:56;;;;;;;;;;;;;;;10.67;45.88;101861.31;4914899;28;98749;-67
2023/02/27 08:09:23;;;;;;;;;;;;;;;10.76;45.61;101862.59;4903745;28;98147;-68
2023/02/27 08:11:49;;;;;;;;;;;;;;;10.84;45.50;101866.00;4898249;28;98382;-68
2023/02/27 08:14:15;;;;;;;;;;;;;;;10.88;45.56;101868.00;4903411;28;98814;-68
2023/02/27 08:16:42;;;;;;;;;;;;;;;10.98;45.52;101873.63;4927397;28;98363;-68
2023/02/27 08:19:08;;;;;;;;;;;;;;;11.05;45.11;101878.91;4895958;28;98247;-68
2023/02/27 08:21:34;;;;;;;;;;;;;;;11.07;45.22;101882.19;4889686;28;99016;-68
2023/02/27 08:24:00;;;;;;;;;;;;;;;11.09;45.70;101887.34;4916342;28;98017;-67
2023/02/27 08:26:26;;;;;;;;;;;;;;;11.10;45.37;101875.50;4917224;28;99454;-68
2023/02/27 08:28:52;;;;;;;;;;;;;;;11.13;45.77;101865.06;4882079;28;98103;-66
2023/02/27 08:31:19;;;;;;;;;;;;;;;11.21;45.72;101866.56;4906284;28;98094;-67
2023/02/27 08:33:45;;;;;;;;;;;;;;;11.28;45.29;101875.34;4880732;28;98624;-66
2023/02/27 08:36:11;;;;;;;;;;;;;;;11.35;45.74;101872.50;4916724;28;98843;-67
2023/02/27 08:38:37;;;;;;;;;;;;;;;11.49;45.27;101869.31;4899040;28;99230;-67
2023/02/27 08:41:04;;;;;;;;;;;;;;;11.65;44.84;101869.59;4910966;28;98966;-67
2023/02/27 08:43:30;;;;;;;;;;;;;;;11.79;44.90;101866.38;4897251;28;98139;-68
2023/02/27 08:45:56;;;;;;;;;;;;;;;11.98;44.85;101868.91;4900974;28;98033;-67
2023/02/27 08:48:23;;;;;;;;;;;;;;;12.14;44.82;101876.22;4930956;28;100287;-69
2023/02/27 08:50:49;;;;;;;;;;;;;;;12.23;44.71;101874.78;4900014;28;98250;-67
2023/02/27 08:53:16;;;;;;;;;;;;;;;12.37;44.68;101866.31;4913129;28;99862;-66
2023/02/27 08:55:42;;;;;;;;;;;;;;;12.46;44.83;101868.41;4903900;28;98495;-67
2023/02/27 08:58:09;;;;;;;;;;;;;;;12.53;44.67;101870.91;4887225;28;99153;-67
2023/02/27 09:00:35;;;;;;;;;;;;;;;12.64;44.90;101880.00;4914549;28;98228;-66
2023/02/27 09:03:02;;;;;;;;;;;;;;;12.82;44.70;101874.34;4879894;28;98582;-66
2023/02/27 09:05:28;;;;;;;;;;;;;;;12.85;44.57;101878.44;4915561;28;99897;-66
2023/02/27 09:07:54;;;;;;;;;;;;;;;12.75;44.70;101888.03;4913707;28;99056;-68
2023/02/27 09:10:21;;;;;;;;;;;;;;;12.70;45.03;101887.16;4887267;28;98060;-66
2023/02/27 09:12:48;;;;;;;;;;;;;;;12.67;45.05;101888.47;4915423;28;98300;-67
2023/02/27 09:15:14;;;;;;;;;;;;;;;12.66;44.93;101889.53;4907071;28;98233;-68
2023/02/27 09:17:40;;;;;;;;;;;;;;;12.67;45.12;101896.56;4907050;28;100950;-67
2023/02/27 09:20:08;;;;;;;;;;;;;;;12.74;44.89;101893.72;4923639;28;99722;-68
2023/02/27 09:22:34;;;;;;;;;;;;;;;12.84;44.65;101898.44;4907225;28;98165;-67
2023/02/27 09:25:00;;;;;;;;;;;;;;;13.05;44.55;101892.28;4907605;28;98233;-66
2023/02/27 09:27:27;;;;;;;;;;;;;;;13.41;44.10;101890.06;4948818;28;98400;-69
2023/02/27 09:29:54;;;;;;;;;;;;;;;14.04;43.61;101890.50;4905594;28;98114;-69
2023/02/27 09:32:21;;;;;;;;;;;;;;;14.98;43.01;101879.88;4901378;28;98209;-69
2023/02/27 09:34:48;;;;;;;;;;;;;;;15.69;42.52;101884.84;4908159;28;98439;-67
2023/02/27 09:37:15;;;;;;;;;;;;;;;16.16;42.48;101881.13;4904653;28;101523;-69
2023/02/27 09:39:41;;;;;;;;;;;;;;;16.34;42.44;101882.47;4894461;28;98217;-69
2023/02/27 09:42:17;;;;;;;;;;;;;;;16.69;42.54;101878.13;4918202;28;98214;-67
2023/02/27 09:45:03;;;;;;;;;;;;;;;17.50;41.86;101884.47;4935700;28;98153;-67
2023/02/27 09:47:36;;;;;;;;;;;;;;;18.09;41.81;101883.59;4926043;28;97925;-70
2023/02/27 09:50:04;;;;;;;;;;;;;;;19.09;41.12;101888.44;4920153;28;99913;-70
2023/02/27 09:52:31;;;;;;;;;;;;;;;19.72;40.90;101889.34;4919313;28;98200;-68
2023/02/27 09:54:57;;;;;;;;;;;;;;;20.65;40.31;101890.38;4909043;28;98404;-70
2023/02/27 09:57:55;;;;;;;;;;;;;;;23.64;37.62;101892.91;4915579;28;98168;-71
2023/02/27 10:00:57;;;;;;;;;;;;;;;24.39;37.93;101905.44;4929722;28;97902;-67
2023/02/27 10:03:37;;;;;;;;;;;;;;;25.06;38.26;101906.69;4933700;28;98140;-67
2023/02/27 10:06:26;;;;;;;;;;;;;;;27.27;36.67;101902.19;4917923;28;98357;-66
2023/02/27 10:09:05;;;;;;;;;;;;;;;29.28;36.00;101907.47;4937262;28;97972;-67
2023/02/27 10:11:43;;;;;;;;;;;;;;;31.33;34.98;101910.31;4923356;28;98426;-71
2023/02/27 10:14:34;;;;;;;;;;;;;;;33.66;33.66;101908.72;4938726;28;98163;-67
2023/02/27 10:17:02;;;;;;;;;;;;;;;34.86;33.65;101906.66;4936267;28;98132;-68
2023/02/27 10:19:31;;;;;;;;;;;;;;;36.26;33.22;101903.47;4905842;28;98028;-68
2023/02/27 10:21:58;;;;;;;;;;;;;;;34.85;35.02;101895.84;4917070;28;98276;-73
2023/02/27 10:24:30;;;;;;;;;;;;;;;34.06;36.17;101889.31;4920878;28;98512;-67
2023/02/27 10:26:58;;;;;;;;;;;;;;;31.34;39.25;101870.13;4903915;28;98352;-67
2023/02/27 10:29:43;;;;;;;;;;;;;;;29.52;40.65;101875.88;4902605;28;98293;-72
2023/02/27 10:32:20;;;;;;;;;;;;;;;27.92;42.06;101869.78;4907432;28;98181;-71
2023/02/27 10:35:02;;;;;;;;;;;;;;;26.82;42.49;101870.69;4916570;28;99118;-67
2023/02/27 10:37:29;;;;;;;;;;;;;;;25.76;43.50;101874.00;4905478;28;98212;-67
2023/02/27 10:39:57;;;;;;;;;;;;;;;25.15;43.49;101871.66;4918626;28;98001;-67
2023/02/27 10:42:24;;;;;;;;;;;;;;;24.00;44.21;101874.16;4915489;28;98144;-67
2023/02/27 10:44:52;;;;;;;;;;;;;;;23.16;44.88;101867.06;4930568;28;98851;-71
2023/02/27 10:47:22;;;;;;;;;;;;;;;22.53;44.78;101874.53;4914265;28;98496;-71
2023/02/27 10:49:48;;;;;;;;;;;;;;;22.25;44.65;101871.13;4935974;28;98166;-66
2023/02/27 10:52:16;;;;;;;;;;;;;;;23.11;43.40;101869.16;4904228;28;99799;-66
2023/02/27 10:54:43;;;;;;;;;;;;;;;24.37;41.40;101880.13;4905865;28;99712;-66
2023/02/27 10:57:25;;;;;;;;;;;;;;;23.10;43.27;101876.59;4916015;28;98219;-69
2023/02/27 10:59:54;;;;;;;;;;;;;;;22.50;43.75;101877.09;4921041;28;98321;-69
2023/02/27 11:02:39;;;;;;;;;;;;;;;22.14;43.80;101877.19;4900008;28;98504;-70
2023/02/27 11:05:34;;;;;;;;;;;;;;;21.72;44.17;101874.53;4935783;28;98194;-70
2023/02/27 11:08:12;;;;;;;;;;;;;;;21.21;44.43;101883.00;4922981;28;99723;-67
2023/02/27 11:10:51;;;;;;;;;;;;;;;20.70;44.89;101875.75;4909301;28;98256;-69
2023/02/27 11:13:21;;;;;;;;;;;;;;;20.26;45.12;101866.09;4904874;28;100632;-70
2023/02/27 11:16:04;;;;;;;;;;;;;;;19.84;45.33;101859.63;4919193;28;98317;-67
2023/02/27 11:18:30;;;;;;;;;;;;;;;19.40;45.52;101859.94;4902004;28;98276;-70
2023/02/27 11:21:11;;;;;;;;;;;;;;;19.02;45.63;101863.41;4924777;28;98253;-66
2023/02/27 11:23:39;;;;;;;;;;;;;;;18.58;45.83;101866.25;4930245;28;98925;-66
2023/02/27 11:26:11;;;;;;;;;;;;;;;18.22;45.97;101857.59;4905560;28;98378;-66
2023/02/27 11:28:37;;;;;;;;;;;;;;;17.90;46.16;101867.91;4902582;28;99463;-67
2023/02/27 11:31:21;;;;;;;;;;;;;;;17.64;46.07;101864.50;4911858;28;99512;-66
2023/02/27 11:33:57;;;;;;;;;;;;;;;17.41;46.06;101865.97;4902141;28;97977;-66
2023/02/27 11:36:41;;;;;;;;;;;;;;;17.26;46.10;101865.22;4919713;28;98014;-69
2023/02/27 11:39:21;;;;;;;;;;;;;;;17.19;45.92;101873.69;4916430;28;98905;-69
2023/02/27 11:41:47;;;;;;;;;;;;;;;17.24;45.52;101861.94;4901618;28;97981;-67
2023/02/27 11:44:16;;;;;;;;;;;;;;;17.29;45.45;101860.03;4914968;28;98083;-70
2023/02/27 11:46:42;;;;;;;;;;;;;;;17.38;45.07;101866.53;4903328;28;98398;-67
2023/02/27 11:49:23;;;;;;;;;;;;;;;17.51;45.01;101864.28;4903540;28;98568;-67
2023/02/27 11:51:52;;;;;;;;;;;;;;;17.58;44.91;101859.34;4917881;28;98157;-69
2023/02/27 11:54:21;;;;;;;;;;;;;;;17.52;44.88;101855.81;4919912;28;99407;-69
2023/02/27 11:56:57;;;;;;;;;;;;;;;17.49;44.75;101850.09;4916471;28;98136;-66
2023/02/27 11:59:27;;;;;;;;;;;;;;;17.31;44.95;101857.81;4898487;28;98278;-66
2023/02/27 12:02:17;;;;;;;;;;;;;;;17.22;45.16;101854.06;4913788;28;99905;-69
2023/02/27 12:04:52;;;;;;;;;;;;;;;17.18;44.92;101852.97;4919182;28;98339;-66
2023/02/27 12:07:25;;;;;;;;;;;;;;;17.06;45.09;101855.22;4930912;28;98007;-69
2023/02/27 12:09:57;;;;;;;;;;;;;;;16.90;45.08;101859.88;4903850;28;98094;-69
2023/02/27 12:12:37;;;;;;;;;;;;;;;16.71;45.21;101862.34;4918486;28;98602;-69
2023/02/27 12:15:26;;;;;;;;;;;;;;;16.50;45.49;101853.34;4900214;28;98780;-69
2023/02/27 12:18:13;;;;;;;;;;;;;;;16.28;45.48;101858.28;4934089;28;98454;-68
2023/02/27 12:21:15;;;;;;;;;;;;;;;16.06;45.58;101859.34;4932173;28;99950;-69
2023/02/27 12:23:58;;;;;;;;;;;;;;;15.88;45.77;101868.84;4919622;28;98807;-66
2023/02/27 12:26:38;;;;;;;;;;;;;;;15.75;45.58;101865.81;4933276;28;97974;-69
2023/02/27 12:29:14;;;;;;;;;;;;;;;15.63;45.70;101860.59;4906892;28;98022;-66
2023/02/27 12:32:00;;;;;;;;;;;;;;;15.54;45.56;101864.91;4923541;28;98529;-70
2023/02/27 12:34:28;;;;;;;;;;;;;;;15.45;45.54;101864.63;4939335;28;98243;-70
2023/02/27 12:37:14;;;;;;;;;;;;;;;15.38;45.63;101864.06;4920157;28;98382;-67
2023/02/27 12:39:41;;;;;;;;;;;;;;;15.30;45.62;101865.38;4906365;28;98331;-69
2023/02/27 12:42:32;;;;;;;;;;;;;;;15.24;45.70;101861.00;4899995;28;98127;-69
2023/02/27 12:45:41;;;;;;;;;;;;;;;15.18;45.60;101862.06;4919504;28;99347;-67
2023/02/27 12:48:39;;;;;;;;;;;;;;;15.17;45.61;101861.25;4882596;28;98126;-69
2023/02/27 12:51:33;;;;;;;;;;;;;;;15.16;45.58;101867.75;4934372;28;99118;-67
2023/02/27 12:54:19;;;;;;;;;;;;;;;15.19;45.26;101867.22;4932026;28;100267;-69
2023/02/27 12:57:06;;;;;;;;;;;;;;;15.26;45.22;101866.19;4919798;28;98444;-68
2023/02/27 12:59:52;;;;;;;;;;;;;;;15.35;45.09;101865.38;4952865;28;98268;-66
2023/02/27 13:02:28;;;;;;;;;;;;;;;15.50;45.04;101870.06;4933785;28;98735;-69
2023/02/27 13:05:13;;;;;;;;;;;;;;;15.64;44.89;101863.06;4919411;28;98259;-67
2023/02/27 13:07:49;;;;;;;;;;;;;;;15.78;44.77;101862.56;4933907;28;98410;-68
2023/02/27 13:10:18;;;;;;;;;;;;;;;15.80;44.64;101866.66;4921833;28;98078;-69
2023/02/27 13:13:14;;;;;;;;;;;;;;;15.77;44.92;101869.91;4901634;28;98263;-66
2023/02/27 13:15:45;;;;;;;;;;;;;;;15.66;44.83;101860.91;4908173;28;99759;-69